createdAt,value
2023-05-18T00:00:32.044Z,3.60
2023-05-18T00:01:01.194Z,3.60
2023-05-18T00:01:32.337Z,3.60
2023-05-18T00:02:03.248Z,3.60
2023-05-18T00:02:34.944Z,3.60
2023-05-18T00:03:06.412Z,3.50
2023-05-18T00:03:37.039Z,3.50
2023-05-18T00:04:25.299Z,3.50
2023-05-18T00:04:38.931Z,3.50
2023-05-18T00:05:09.734Z,3.40
2023-05-18T00:05:40.257Z,3.40
2023-05-18T00:06:11.500Z,3.40
2023-05-18T00:06:42.114Z,3.40
2023-05-18T00:07:13.307Z,3.40
2023-05-18T00:07:45.629Z,3.40
2023-05-18T00:08:35.741Z,3.30
2023-05-18T00:09:19.738Z,3.30
2023-05-18T00:12:47.607Z,3.30
2023-05-18T00:12:55.616Z,3.20
2023-05-18T00:13:30.428Z,3.20
2023-05-18T00:14:01.298Z,3.20
2023-05-18T00:14:33.722Z,3.20
2023-05-18T00:15:19.328Z,3.20
2023-05-18T00:15:54.473Z,3.20
2023-05-18T00:16:04.316Z,3.20
2023-05-18T00:16:50.854Z,3.20
2023-05-18T00:17:24.010Z,3.10
2023-05-18T00:17:34.624Z,3.10
2023-05-18T00:18:05.260Z,3.10
2023-05-18T00:18:40.201Z,3.10
2023-05-18T00:19:13.149Z,3.10
2023-05-18T00:19:38.473Z,3.10
2023-05-18T00:20:14.407Z,3.00
2023-05-18T00:20:39.955Z,3.00
2023-05-18T00:21:15.339Z,3.00
2023-05-18T00:21:42.502Z,3.00
2023-05-18T00:22:18.469Z,3.00
2023-05-18T00:22:44.641Z,3.00
2023-05-18T00:23:15.312Z,2.90
2023-05-18T00:23:46.268Z,2.90
2023-05-18T00:24:16.884Z,2.90
2023-05-18T00:24:48.800Z,2.90
2023-05-18T00:25:18.914Z,2.90
2023-05-18T00:25:49.647Z,2.90
2023-05-18T00:26:23.986Z,2.90
2023-05-18T00:26:51.838Z,2.90
2023-05-18T00:27:22.416Z,2.80
2023-05-18T00:27:55.459Z,2.80
2023-05-18T00:28:25.824Z,2.80
2023-05-18T00:28:56.398Z,2.80
2023-05-18T00:29:27.275Z,2.80
2023-05-18T00:29:57.572Z,2.80
2023-05-18T00:30:37.038Z,2.80
2023-05-18T00:31:00.142Z,2.70
2023-05-18T00:31:31.097Z,2.70
2023-05-18T00:32:02.613Z,2.70
2023-05-18T00:32:32.780Z,2.70
2023-05-18T00:33:04.956Z,2.70
2023-05-18T00:33:35.740Z,2.70
2023-05-18T00:34:19.064Z,2.70
2023-05-18T00:34:37.087Z,2.70
2023-05-18T00:35:08.632Z,2.70
2023-05-18T00:35:38.783Z,2.70
2023-05-18T00:36:10.125Z,2.60
2023-05-18T00:36:40.719Z,2.60
2023-05-18T00:37:11.407Z,2.60
2023-05-18T00:37:42.239Z,2.60
2023-05-18T00:38:14.516Z,2.60
2023-05-18T00:38:45.320Z,2.60
2023-05-18T00:39:15.960Z,2.60
2023-05-18T00:39:46.702Z,2.60
2023-05-18T00:40:19.044Z,2.50
2023-05-18T00:40:48.733Z,2.50
2023-05-18T00:41:50.668Z,2.50
2023-05-18T00:42:21.259Z,2.50
2023-05-18T00:42:52.576Z,2.50
2023-05-18T00:43:23.658Z,2.50
2023-05-18T00:43:55.423Z,2.50
2023-05-18T00:44:26.110Z,2.50
2023-05-18T00:44:56.909Z,2.50
2023-05-18T00:45:28.343Z,2.50
2023-05-18T00:45:58.336Z,2.50
2023-05-18T00:46:47.494Z,2.50
2023-05-18T00:47:00.729Z,2.50
2023-05-18T00:47:31.375Z,2.40
2023-05-18T00:48:02.858Z,2.40
2023-05-18T00:48:50.884Z,2.40
2023-05-18T00:49:05.769Z,2.40
2023-05-18T00:49:35.988Z,2.40
2023-05-18T00:50:07.263Z,2.40
2023-05-18T00:50:37.751Z,2.40
2023-05-18T00:51:08.727Z,2.40
2023-05-18T00:51:39.934Z,2.30
2023-05-18T00:52:10.719Z,2.30
2023-05-18T00:52:41.325Z,2.30
2023-05-18T00:53:14.137Z,2.30
2023-05-18T00:53:44.373Z,2.30
2023-05-18T00:54:15.799Z,2.30
2023-05-18T00:54:46.200Z,2.30
2023-05-18T00:55:16.994Z,2.20
2023-05-18T00:55:48.063Z,2.20
2023-05-18T00:56:18.876Z,2.20
2023-05-18T00:56:49.542Z,2.20
2023-05-18T00:57:20.933Z,2.20
2023-05-18T00:57:51.483Z,2.20
2023-05-18T00:58:22.482Z,2.10
2023-05-18T00:58:53.260Z,2.10
2023-05-18T00:59:25.802Z,2.10
2023-05-18T00:59:56.368Z,2.10
2023-05-18T01:00:28.460Z,2.10
2023-05-18T01:00:57.531Z,2.10
2023-05-18T01:01:32.966Z,2.10
2023-05-18T01:02:00.080Z,2.00
2023-05-18T01:02:31.372Z,2.00
2023-05-18T01:03:01.806Z,2.00
2023-05-18T01:03:32.511Z,2.00
2023-05-18T01:04:35.608Z,2.00
2023-05-18T01:05:06.385Z,2.00
2023-05-18T01:05:37.246Z,2.00
2023-05-18T01:06:07.751Z,2.00
2023-05-18T01:06:56.817Z,1.90
2023-05-18T01:07:09.705Z,1.90
2023-05-18T01:07:40.861Z,1.90
2023-05-18T01:08:11.427Z,1.90
2023-05-18T01:08:42.463Z,1.90
2023-05-18T01:09:14.071Z,1.90
2023-05-18T01:09:45.462Z,1.90
2023-05-18T01:10:16.858Z,1.90
2023-05-18T01:10:47.525Z,1.90
2023-05-18T01:11:18.565Z,1.90
2023-05-18T01:12:07.195Z,1.90
2023-05-18T01:12:20.054Z,1.90
2023-05-18T01:12:51.571Z,1.80
2023-05-18T01:13:21.324Z,1.80
2023-05-18T01:13:52.437Z,1.80
2023-05-18T01:14:24.836Z,1.80
2023-05-18T01:14:55.632Z,1.80
2023-05-18T01:15:43.106Z,1.80
2023-05-18T01:15:57.149Z,1.80
2023-05-18T01:16:27.913Z,1.80
2023-05-18T01:16:58.501Z,1.80
2023-05-18T01:17:30.128Z,1.80
2023-05-18T01:18:01.352Z,1.80
2023-05-18T01:18:31.249Z,1.80
2023-05-18T01:19:02.775Z,1.80
2023-05-18T01:19:33.871Z,1.80
2023-05-18T01:20:36.408Z,1.80
2023-05-18T01:21:07.012Z,1.80
2023-05-18T01:21:38.005Z,1.80
2023-05-18T01:22:08.751Z,1.80
2023-05-18T01:22:40.055Z,1.80
2023-05-18T01:23:11.251Z,1.80
2023-05-18T01:23:42.059Z,1.90
2023-05-18T01:24:12.565Z,1.90
2023-05-18T01:24:43.887Z,1.90
2023-05-18T01:25:15.886Z,1.90
2023-05-18T01:25:46.402Z,1.90
2023-05-18T01:26:17.361Z,1.90
2023-05-18T01:26:47.865Z,1.80
2023-05-18T01:27:18.692Z,1.80
2023-05-18T01:27:50.182Z,1.80
2023-05-18T01:28:20.891Z,1.80
2023-05-18T01:28:51.409Z,1.80
2023-05-18T01:29:22.439Z,1.80
2023-05-18T01:29:53.497Z,1.80
2023-05-18T01:30:25.937Z,1.80
2023-05-18T01:30:56.227Z,1.80
2023-05-18T01:31:27.616Z,1.80
2023-05-18T01:31:58.645Z,1.80
2023-05-18T01:32:29.442Z,1.80
2023-05-18T01:33:00.265Z,1.80
2023-05-18T01:33:30.934Z,1.80
2023-05-18T01:34:01.467Z,1.80
2023-05-18T01:34:33.239Z,1.70
2023-05-18T01:35:03.924Z,1.70
2023-05-18T01:35:35.241Z,1.70
2023-05-18T01:36:07.037Z,1.70
2023-05-18T01:36:37.235Z,1.70
2023-05-18T01:37:08.017Z,1.70
2023-05-18T01:37:39.352Z,1.70
2023-05-18T01:38:10.074Z,1.70
2023-05-18T01:38:43.759Z,1.70
2023-05-18T01:39:11.806Z,1.70
2023-05-18T01:39:42.638Z,1.70
2023-05-18T01:40:13.798Z,1.70
2023-05-18T01:40:45.725Z,1.70
2023-05-18T01:41:16.723Z,1.60
2023-05-18T01:41:47.769Z,1.60
2023-05-18T01:42:18.230Z,1.60
2023-05-18T01:42:48.725Z,1.60
2023-05-18T01:43:20.623Z,1.60
2023-05-18T01:44:22.391Z,1.50
2023-05-18T01:44:52.689Z,1.50
2023-05-18T01:45:23.951Z,1.50
2023-05-18T01:45:55.751Z,1.50
2023-05-18T01:46:26.761Z,1.50
2023-05-18T01:47:28.050Z,1.50
2023-05-18T01:47:58.883Z,1.40
2023-05-18T01:48:30.317Z,1.40
2023-05-18T01:49:14.572Z,1.40
2023-05-18T01:49:31.466Z,1.40
2023-05-18T01:50:33.987Z,1.40
2023-05-18T01:51:05.609Z,1.40
2023-05-18T01:51:37.139Z,1.40
2023-05-18T01:52:24.096Z,1.40
2023-05-18T01:52:38.115Z,1.40
2023-05-18T01:53:09.026Z,1.40
2023-05-18T01:53:39.901Z,1.50
2023-05-18T01:54:11.088Z,1.50
2023-05-18T01:54:41.507Z,1.50
2023-05-18T01:55:13.108Z,1.50
2023-05-18T01:55:43.670Z,1.50
2023-05-18T01:56:15.475Z,1.50
2023-05-18T01:57:03.518Z,1.50
2023-05-18T01:57:18.086Z,1.50
2023-05-18T01:57:48.284Z,1.50
2023-05-18T01:58:19.265Z,1.50
2023-05-18T01:58:50.064Z,1.50
2023-05-18T01:59:21.203Z,1.50
2023-05-18T01:59:51.905Z,1.50
2023-05-18T02:00:23.411Z,1.50
2023-05-18T02:00:53.455Z,1.50
2023-05-18T02:01:25.515Z,1.50
2023-05-18T02:01:59.629Z,1.50
2023-05-18T02:02:27.698Z,1.50
2023-05-18T02:02:58.103Z,1.50
2023-05-18T02:03:29.772Z,1.40
2023-05-18T02:04:00.266Z,1.40
2023-05-18T02:04:30.809Z,1.40
2023-05-18T02:05:25.976Z,1.40
2023-05-18T02:05:33.036Z,1.40
2023-05-18T02:06:04.058Z,1.30
2023-05-18T02:06:35.184Z,1.30
2023-05-18T02:07:07.037Z,1.30
2023-05-18T02:07:37.540Z,1.30
2023-05-18T02:08:09.556Z,1.30
2023-05-18T02:08:39.109Z,1.30
2023-05-18T02:09:12.835Z,1.30
2023-05-18T02:09:40.907Z,1.30
2023-05-18T02:10:11.767Z,1.30
2023-05-18T02:10:43.165Z,1.30
2023-05-18T02:11:14.023Z,1.30
2023-05-18T02:11:45.893Z,1.30
2023-05-18T02:12:17.250Z,1.30
2023-05-18T02:12:48.048Z,1.30
2023-05-18T02:13:18.958Z,1.30
2023-05-18T02:13:48.907Z,1.30
2023-05-18T02:14:20.468Z,1.30
2023-05-18T02:14:51.803Z,1.30
2023-05-18T02:15:22.747Z,1.30
2023-05-18T02:15:53.147Z,1.30
2023-05-18T02:16:23.834Z,1.30
2023-05-18T02:16:55.790Z,1.30
2023-05-18T02:17:26.783Z,1.30
2023-05-18T02:17:57.447Z,1.30
2023-05-18T02:18:28.199Z,1.30
2023-05-18T02:18:59.893Z,1.30
2023-05-18T02:19:30.309Z,1.30
2023-05-18T02:20:01.258Z,1.30
2023-05-18T02:20:31.943Z,1.30
2023-05-18T02:21:03.089Z,1.30
2023-05-18T02:21:33.843Z,1.20
2023-05-18T02:22:05.441Z,1.20
2023-05-18T02:22:37.195Z,1.20
2023-05-18T02:23:18.960Z,1.20
2023-05-18T02:23:56.122Z,1.20
2023-05-18T02:24:09.653Z,1.20
2023-05-18T02:24:39.968Z,1.20
2023-05-18T02:25:11.599Z,1.20
2023-05-18T02:25:41.654Z,1.20
2023-05-18T02:26:13.010Z,1.20
2023-05-18T02:26:43.820Z,1.20
2023-05-18T02:27:15.348Z,1.20
2023-05-18T02:27:46.626Z,1.20
2023-05-18T02:28:18.178Z,1.20
2023-05-18T02:28:48.564Z,1.20
2023-05-18T02:29:19.332Z,1.20
2023-05-18T02:29:50.920Z,1.20
2023-05-18T02:30:22.808Z,1.10
2023-05-18T02:31:03.899Z,1.10
2023-05-18T02:31:24.026Z,1.10
2023-05-18T02:31:54.298Z,1.10
2023-05-18T02:32:25.900Z,1.10
2023-05-18T02:33:18.728Z,1.10
2023-05-18T02:33:28.122Z,1.10
2023-05-18T02:33:58.688Z,1.00
2023-05-18T02:34:28.966Z,1.00
2023-05-18T02:35:00.046Z,1.00
2023-05-18T02:35:31.464Z,1.00
2023-05-18T02:36:02.705Z,1.00
2023-05-18T02:36:32.869Z,1.00
2023-05-18T02:37:04.197Z,1.00
2023-05-18T02:37:35.341Z,1.00
2023-05-18T02:38:07.109Z,1.00
2023-05-18T02:38:38.126Z,1.00
2023-05-18T02:39:08.253Z,1.00
2023-05-18T02:39:39.442Z,1.00
2023-05-18T02:40:10.983Z,1.00
2023-05-18T02:40:41.410Z,1.00
2023-05-18T02:41:12.230Z,1.00
2023-05-18T02:41:42.972Z,1.00
2023-05-18T02:42:14.541Z,1.00
2023-05-18T02:42:45.433Z,1.00
2023-05-18T02:43:17.136Z,1.00
2023-05-18T02:43:47.630Z,1.00
2023-05-18T02:44:18.682Z,1.00
2023-05-18T02:44:49.861Z,1.00
2023-05-18T02:45:21.179Z,1.00
2023-05-18T02:45:51.420Z,1.00
2023-05-18T02:46:22.430Z,1.00
2023-05-18T02:46:52.912Z,1.00
2023-05-18T02:47:24.078Z,1.00
2023-05-18T02:47:54.985Z,1.00
2023-05-18T02:48:27.067Z,1.00
2023-05-18T02:48:58.024Z,1.00
2023-05-18T02:49:59.812Z,1.00
2023-05-18T02:50:30.563Z,1.00
2023-05-18T02:51:01.502Z,1.00
2023-05-18T02:51:32.534Z,1.00
2023-05-18T02:52:03.309Z,.90
2023-05-18T02:52:34.282Z,.90
2023-05-18T02:53:05.547Z,.90
2023-05-18T02:53:36.849Z,.90
2023-05-18T02:54:08.070Z,.90
2023-05-18T02:54:38.704Z,.90
2023-05-18T02:55:10.832Z,.90
2023-05-18T02:55:40.199Z,.90
2023-05-18T02:56:11.644Z,.90
2023-05-18T02:56:42.048Z,.90
2023-05-18T02:57:13.420Z,.90
2023-05-18T02:57:45.882Z,.90
2023-05-18T02:58:46.791Z,.90
2023-05-18T02:59:18.293Z,.90
2023-05-18T02:59:48.824Z,.90
2023-05-18T03:00:23.140Z,.90
2023-05-18T03:00:51.610Z,.90
2023-05-18T03:01:22.582Z,.90
2023-05-18T03:01:52.050Z,.90
2023-05-18T03:02:22.919Z,.90
2023-05-18T03:03:25.745Z,.90
2023-05-18T03:03:56.648Z,.90
2023-05-18T03:04:28.059Z,.90
2023-05-18T03:04:58.944Z,.90
2023-05-18T03:05:30.684Z,.90
2023-05-18T03:06:02.354Z,.90
2023-05-18T03:06:31.874Z,.90
2023-05-18T03:07:02.887Z,.90
2023-05-18T03:07:36.811Z,.90
2023-05-18T03:08:04.153Z,.90
2023-05-18T03:08:35.093Z,.90
2023-05-18T03:09:06.928Z,.90
2023-05-18T03:09:38.575Z,.90
2023-05-18T03:10:09.129Z,.90
2023-05-18T03:10:39.774Z,.90
2023-05-18T03:11:10.937Z,.90
2023-05-18T03:11:41.637Z,.90
2023-05-18T03:12:12.372Z,.90
2023-05-18T03:12:43.178Z,.90
2023-05-18T03:13:14.055Z,.90
2023-05-18T03:13:44.869Z,.90
2023-05-18T03:14:16.678Z,.90
2023-05-18T03:14:48.625Z,.90
2023-05-18T03:15:19.483Z,.90
2023-05-18T03:15:50.384Z,.90
2023-05-18T03:16:52.053Z,.80
2023-05-18T03:17:22.902Z,.80
2023-05-18T03:18:11.979Z,.80
2023-05-18T03:18:24.007Z,.80
2023-05-18T03:18:56.772Z,.80
2023-05-18T03:19:26.781Z,.80
2023-05-18T03:20:14.988Z,.80
2023-05-18T03:20:59.700Z,.80
2023-05-18T03:21:30.998Z,.80
2023-05-18T03:22:02.005Z,.80
2023-05-18T03:22:32.652Z,.80
2023-05-18T03:23:03.076Z,.80
2023-05-18T03:23:34.075Z,.80
2023-05-18T03:24:05.534Z,.80
2023-05-18T03:24:36.810Z,.70
2023-05-18T03:25:08.903Z,.70
2023-05-18T03:25:39.204Z,.70
2023-05-18T03:26:09.818Z,.70
2023-05-18T03:26:40.752Z,.70
2023-05-18T03:27:11.708Z,.70
2023-05-18T03:27:42.595Z,.70
2023-05-18T03:28:13.367Z,.70
2023-05-18T03:28:44.440Z,.70
2023-05-18T03:29:15.179Z,.70
2023-05-18T03:29:46.558Z,.70
2023-05-18T03:30:20.116Z,.70
2023-05-18T03:30:49.906Z,.70
2023-05-18T03:31:20.918Z,.70
2023-05-18T03:31:51.953Z,.70
2023-05-18T03:32:22.835Z,.70
2023-05-18T03:32:53.338Z,.70
2023-05-18T03:33:24.124Z,.70
2023-05-18T03:33:54.213Z,.70
2023-05-18T03:34:26.054Z,.70
2023-05-18T03:34:56.952Z,.70
2023-05-18T03:35:45.965Z,.70
2023-05-18T03:36:00.516Z,.70
2023-05-18T03:36:30.414Z,.70
2023-05-18T03:37:01.780Z,.70
2023-05-18T03:37:32.572Z,.70
2023-05-18T03:38:02.735Z,.70
2023-05-18T03:38:33.531Z,.70
2023-05-18T03:39:04.155Z,.70
2023-05-18T03:39:35.504Z,.70
2023-05-18T03:40:07.114Z,.70
2023-05-18T03:40:37.767Z,.70
2023-05-18T03:41:10.093Z,.70
2023-05-18T03:41:41.083Z,.70
2023-05-18T03:42:12.051Z,.70
2023-05-18T03:42:42.131Z,.70
2023-05-18T03:43:12.904Z,.70
2023-05-18T03:43:43.757Z,.80
2023-05-18T03:44:14.428Z,.80
2023-05-18T03:44:45.126Z,.80
2023-05-18T03:45:17.016Z,.80
2023-05-18T03:45:47.468Z,.80
2023-05-18T03:46:19.666Z,.90
2023-05-18T03:46:51.475Z,.90
2023-05-18T03:47:21.741Z,.90
2023-05-18T03:47:52.530Z,.90
2023-05-18T03:48:23.121Z,.90
2023-05-18T03:48:53.445Z,1.00
2023-05-18T03:49:25.530Z,1.00
2023-05-18T03:49:55.264Z,1.00
2023-05-18T03:50:26.366Z,1.00
2023-05-18T03:50:57.333Z,1.00
2023-05-18T03:51:29.083Z,1.00
2023-05-18T03:52:00.736Z,1.00
2023-05-18T03:52:31.458Z,1.00
2023-05-18T03:53:02.219Z,1.00
2023-05-18T03:53:33.198Z,1.10
2023-05-18T03:54:03.328Z,1.10
2023-05-18T03:55:07.730Z,1.10
2023-05-18T03:55:36.440Z,1.10
2023-05-18T03:56:07.069Z,1.10
2023-05-18T03:56:50.932Z,1.10
2023-05-18T03:57:11.168Z,1.10
2023-05-18T03:57:52.673Z,1.10
2023-05-18T03:58:12.431Z,1.20
2023-05-18T03:58:42.894Z,1.20
2023-05-18T03:59:13.456Z,1.20
2023-05-18T03:59:44.464Z,1.20
2023-05-18T04:00:16.805Z,1.20
2023-05-18T04:00:46.861Z,1.20
2023-05-18T04:01:17.539Z,1.20
2023-05-18T04:01:48.235Z,1.20
2023-05-18T04:02:41.917Z,1.20
2023-05-18T04:03:08.558Z,1.20
2023-05-18T04:03:22.184Z,1.20
2023-05-18T04:03:52.619Z,1.20
2023-05-18T04:04:23.774Z,1.20
2023-05-18T04:04:54.385Z,1.20
2023-05-18T04:05:25.384Z,1.20
2023-05-18T04:05:56.477Z,1.20
2023-05-18T04:06:28.900Z,1.20
2023-05-18T04:06:59.347Z,1.20
2023-05-18T04:07:29.841Z,1.20
2023-05-18T04:08:01.891Z,1.20
2023-05-18T04:08:32.424Z,1.20
2023-05-18T04:09:03.162Z,1.20
2023-05-18T04:09:33.659Z,1.20
2023-05-18T04:10:23.870Z,1.20
2023-05-18T04:10:37.994Z,1.30
2023-05-18T04:11:06.695Z,1.30
2023-05-18T04:11:37.491Z,1.30
2023-05-18T04:12:09.617Z,1.30
2023-05-18T04:12:40.551Z,1.30
2023-05-18T04:13:12.062Z,1.40
2023-05-18T04:13:42.470Z,1.40
2023-05-18T04:14:12.632Z,1.40
2023-05-18T04:14:43.614Z,1.40
2023-05-18T04:15:14.862Z,1.40
2023-05-18T04:15:45.656Z,1.40
2023-05-18T04:16:16.617Z,1.50
2023-05-18T04:16:47.985Z,1.50
2023-05-18T04:17:19.545Z,1.50
2023-05-18T04:17:50.071Z,1.50
2023-05-18T04:18:21.460Z,1.50
2023-05-18T04:18:52.212Z,1.50
2023-05-18T04:19:23.097Z,1.60
2023-05-18T04:19:53.529Z,1.60
2023-05-18T04:20:24.822Z,1.60
2023-05-18T04:20:55.765Z,1.60
2023-05-18T04:21:26.828Z,1.60
2023-05-18T04:21:59.816Z,1.60
2023-05-18T04:22:29.364Z,1.60
2023-05-18T04:23:01.416Z,1.70
2023-05-18T04:23:32.830Z,1.70
2023-05-18T04:24:04.281Z,1.70
2023-05-18T04:24:34.939Z,1.70
2023-05-18T04:25:04.836Z,1.70
2023-05-18T04:25:36.577Z,1.70
2023-05-18T04:26:07.511Z,1.70
2023-05-18T04:26:37.699Z,1.80
2023-05-18T04:27:08.537Z,1.80
2023-05-18T04:27:39.542Z,1.80
2023-05-18T04:28:28.419Z,1.80
2023-05-18T04:28:42.359Z,1.80
2023-05-18T04:29:13.827Z,1.80
2023-05-18T04:29:44.422Z,1.80
2023-05-18T04:30:18.075Z,1.80
2023-05-18T04:30:46.514Z,1.90
2023-05-18T04:31:16.397Z,1.90
2023-05-18T04:31:48.208Z,1.90
2023-05-18T04:32:19.906Z,1.90
2023-05-18T04:32:50.948Z,1.90
2023-05-18T04:33:21.991Z,1.90
2023-05-18T04:33:54.286Z,2.00
2023-05-18T04:34:24.050Z,2.00
2023-05-18T04:34:53.996Z,2.00
2023-05-18T04:35:25.916Z,2.00
2023-05-18T04:35:56.774Z,2.10
2023-05-18T04:36:30.263Z,2.10
2023-05-18T04:36:57.878Z,2.10
2023-05-18T04:37:28.566Z,2.10
2023-05-18T04:37:59.167Z,2.10
2023-05-18T04:38:29.612Z,2.10
2023-05-18T04:39:01.924Z,2.20
2023-05-18T04:39:33.178Z,2.20
2023-05-18T04:40:05.159Z,2.20
2023-05-18T04:40:35.497Z,2.20
2023-05-18T04:41:05.614Z,2.20
2023-05-18T04:41:36.434Z,2.30
2023-05-18T04:42:08.273Z,2.30
2023-05-18T04:42:38.314Z,2.30
2023-05-18T04:43:10.021Z,2.30
2023-05-18T04:44:13.162Z,2.40
2023-05-18T04:44:43.540Z,2.40
2023-05-18T04:45:15.366Z,2.40
2023-05-18T04:45:45.846Z,2.40
2023-05-18T04:46:46.284Z,2.50
2023-05-18T04:47:18.481Z,2.50
2023-05-18T04:47:48.540Z,2.50
2023-05-18T04:48:19.473Z,2.50
2023-05-18T04:48:49.763Z,2.60
2023-05-18T04:49:22.678Z,2.60
2023-05-18T04:49:53.781Z,2.60
2023-05-18T04:50:24.534Z,2.60
2023-05-18T04:50:55.300Z,2.70
2023-05-18T04:51:26.480Z,2.70
2023-05-18T04:51:56.236Z,2.70
2023-05-18T04:52:28.159Z,2.70
2023-05-18T04:52:58.415Z,2.70
2023-05-18T04:53:29.709Z,2.80
2023-05-18T04:54:00.395Z,2.80
2023-05-18T04:54:32.725Z,2.80
2023-05-18T04:55:35.503Z,2.90
2023-05-18T04:56:04.207Z,2.90
2023-05-18T04:56:35.956Z,2.90
2023-05-18T04:57:06.781Z,3.00
2023-05-18T04:57:37.668Z,3.00
2023-05-18T04:58:08.817Z,3.00
2023-05-18T04:58:39.714Z,3.00
2023-05-18T04:59:09.502Z,3.00
2023-05-18T04:59:41.610Z,3.00
2023-05-18T05:00:13.114Z,3.10
2023-05-18T05:00:44.382Z,3.10
2023-05-18T05:01:15.364Z,3.20
2023-05-18T05:01:45.387Z,3.20
2023-05-18T05:02:15.900Z,3.20
2023-05-18T05:02:46.747Z,3.30
2023-05-18T05:03:17.516Z,3.30
2023-05-18T05:03:48.957Z,3.30
2023-05-18T05:04:19.840Z,3.40
2023-05-18T05:04:50.873Z,3.40
2023-05-18T05:05:36.979Z,3.50
2023-05-18T05:05:52.613Z,3.50
2023-05-18T05:06:24.844Z,3.60
2023-05-18T05:06:56.017Z,3.70
2023-05-18T05:07:25.811Z,3.80
2023-05-18T05:07:56.798Z,3.90
2023-05-18T05:08:27.549Z,3.90
2023-05-18T05:08:59.294Z,3.90
2023-05-18T05:09:29.851Z,3.90
2023-05-18T05:10:00.791Z,4.00
2023-05-18T05:10:32.529Z,4.00
2023-05-18T05:11:04.173Z,4.10
2023-05-18T05:11:34.784Z,4.10
2023-05-18T05:12:05.969Z,4.20
2023-05-18T05:12:35.962Z,4.20
2023-05-18T05:13:06.956Z,4.30
2023-05-18T05:13:37.685Z,4.30
2023-05-18T05:14:08.953Z,4.40
2023-05-18T05:14:39.693Z,4.40
2023-05-18T05:15:11.159Z,4.50
2023-05-18T05:15:41.698Z,4.50
2023-05-18T05:16:13.470Z,4.50
2023-05-18T05:16:44.279Z,4.60
2023-05-18T05:17:15.690Z,4.60
2023-05-18T05:17:46.847Z,4.60
2023-05-18T05:18:16.591Z,4.70
2023-05-18T05:18:47.815Z,4.70
2023-05-18T05:19:18.804Z,4.80
2023-05-18T05:19:49.710Z,4.80
2023-05-18T05:20:20.603Z,4.80
2023-05-18T05:20:51.601Z,4.80
2023-05-18T05:25:34.340Z,5.30
2023-05-18T05:26:14.441Z,5.30
2023-05-18T05:26:33.556Z,5.30
2023-05-18T05:35:27.480Z,5.80
2023-05-18T05:35:55.680Z,5.90
2023-05-18T05:36:30.425Z,5.90
2023-05-18T05:36:52.552Z,5.90
2023-05-18T05:37:23.917Z,6.00
2023-05-18T05:38:12.323Z,6.00
2023-05-18T05:38:25.567Z,6.00
2023-05-18T05:38:56.959Z,6.10
2023-05-18T05:39:32.483Z,6.10
2023-05-18T05:39:59.777Z,6.10
2023-05-18T05:40:31.179Z,6.10
2023-05-18T05:41:02.743Z,6.20
2023-05-18T05:41:32.759Z,6.20
2023-05-18T05:42:04.328Z,6.20
2023-05-18T05:42:34.546Z,6.30
2023-05-18T05:43:06.310Z,6.30
2023-05-18T05:43:35.848Z,6.30
2023-05-18T05:44:06.720Z,6.40
2023-05-18T05:44:39.352Z,6.40
2023-05-18T05:45:11.479Z,6.40
2023-05-18T05:45:41.947Z,6.40
2023-05-18T05:46:12.094Z,6.40
2023-05-18T05:46:42.794Z,6.50
2023-05-18T05:47:13.410Z,6.50
2023-05-18T05:47:44.274Z,6.50
2023-05-18T05:48:15.492Z,6.50
2023-05-18T05:48:45.880Z,6.50
2023-05-18T05:49:17.101Z,6.60
2023-05-18T05:49:48.272Z,6.60
2023-05-18T05:50:20.495Z,6.60
2023-05-18T05:50:51.045Z,6.60
2023-05-18T05:51:22.236Z,6.60
2023-05-18T05:51:52.573Z,6.60
2023-05-18T05:52:23.365Z,6.70
2023-05-18T05:52:54.211Z,6.70
2023-05-18T05:53:25.501Z,6.70
2023-05-18T05:53:55.691Z,6.70
2023-05-18T05:54:26.845Z,6.70
2023-05-18T05:54:57.722Z,6.70
2023-05-18T05:55:31.821Z,6.80
2023-05-18T05:56:01.654Z,6.80
2023-05-18T05:56:32.447Z,6.80
2023-05-18T05:57:04.235Z,6.80
2023-05-18T05:57:51.211Z,6.90
2023-05-18T05:58:04.915Z,6.90
2023-05-18T05:58:35.154Z,7.00
2023-05-18T05:59:05.888Z,7.10
2023-05-18T05:59:37.159Z,7.10
2023-05-18T06:00:09.558Z,7.10
2023-05-18T06:00:39.424Z,7.20
2023-05-18T06:01:15.534Z,7.20
2023-05-18T06:02:02.022Z,7.30
2023-05-18T06:02:13.461Z,7.30
2023-05-18T06:03:06.744Z,7.30
2023-05-18T06:03:14.551Z,7.50
2023-05-18T06:03:45.321Z,7.50
2023-05-18T06:04:44.702Z,7.60
2023-05-18T06:05:23.486Z,7.80
2023-05-18T06:05:49.138Z,7.90
2023-05-18T06:06:20.854Z,8.10
2023-05-18T06:06:52.035Z,8.30
2023-05-18T06:07:23.046Z,8.40
2023-05-18T06:08:00.685Z,8.60
2023-05-18T06:08:25.003Z,8.70
2023-05-18T06:08:54.999Z,8.80
2023-05-18T06:09:26.911Z,8.90
2023-05-18T06:09:56.912Z,9.00
2023-05-18T06:10:28.774Z,9.00
2023-05-18T06:11:02.932Z,9.10
2023-05-18T06:11:31.718Z,9.10
2023-05-18T06:12:02.142Z,9.20
2023-05-18T06:12:32.846Z,9.30
2023-05-18T06:13:03.771Z,9.30
2023-05-18T06:14:06.821Z,9.70
2023-05-18T06:14:36.008Z,9.90
2023-05-18T06:15:07.963Z,9.90
2023-05-18T06:15:38.196Z,10.00
2023-05-18T06:16:09.726Z,10.10
2023-05-18T06:16:41.496Z,10.20
2023-05-18T06:17:12.285Z,10.30
2023-05-18T06:17:42.727Z,10.40
2023-05-18T06:18:14.295Z,10.50
2023-05-18T06:18:44.316Z,10.50
2023-05-18T06:19:15.553Z,10.50
2023-05-18T06:19:46.029Z,10.60
2023-05-18T06:20:34.953Z,10.70
2023-05-18T06:20:48.536Z,10.70
2023-05-18T06:21:19.640Z,10.80
2023-05-18T06:21:51.366Z,10.90
2023-05-18T06:22:22.786Z,10.90
2023-05-18T06:22:53.135Z,11.10
2023-05-18T06:23:25.587Z,11.10
2023-05-18T06:23:54.344Z,11.20
2023-05-18T06:24:25.509Z,11.20
2023-05-18T06:25:27.330Z,11.30
2023-05-18T06:25:58.501Z,11.30
2023-05-18T06:26:29.112Z,11.30
2023-05-18T06:27:02.772Z,11.30
2023-05-18T06:27:34.309Z,11.30
2023-05-18T06:28:04.181Z,11.30
2023-05-18T06:28:33.927Z,11.30
2023-05-18T06:29:22.868Z,11.30
2023-05-18T06:29:35.169Z,11.40
2023-05-18T06:30:07.154Z,11.40
2023-05-18T06:30:37.886Z,11.40
2023-05-18T06:31:08.067Z,11.40
2023-05-18T06:31:39.342Z,11.40
2023-05-18T06:32:11.973Z,11.40
2023-05-18T06:32:43.032Z,11.50
2023-05-18T06:33:13.772Z,11.50
2023-05-18T06:33:43.858Z,11.60
2023-05-18T06:34:15.312Z,11.60
2023-05-18T06:34:45.727Z,11.60
2023-05-18T06:35:16.632Z,11.70
2023-05-18T06:35:49.481Z,11.80
2023-05-18T06:36:18.564Z,12.00
2023-05-18T06:36:49.191Z,12.10
2023-05-18T06:37:21.120Z,12.20
2023-05-18T06:37:52.076Z,12.30
2023-05-18T06:38:39.308Z,12.40
2023-05-18T06:38:53.823Z,12.40
2023-05-18T06:39:24.583Z,12.50
2023-05-18T06:44:03.185Z,13.40
2023-05-18T06:44:36.905Z,13.40
2023-05-18T06:45:08.153Z,13.50
2023-05-18T06:45:38.237Z,13.50
2023-05-18T06:46:09.586Z,13.60
2023-05-18T06:46:40.238Z,13.70
2023-05-18T06:47:11.984Z,13.80
2023-05-18T06:47:42.406Z,13.90
2023-05-18T06:48:11.868Z,13.90
2023-05-18T06:48:42.866Z,14.10
2023-05-18T06:49:14.612Z,14.10
2023-05-18T06:49:44.828Z,14.30
2023-05-18T06:50:16.233Z,14.60
2023-05-18T06:50:46.463Z,14.80
2023-05-18T06:51:18.068Z,15.00
2023-05-18T06:51:48.155Z,15.10
2023-05-18T06:52:19.059Z,15.10
2023-05-18T06:53:14.481Z,15.20
2023-05-18T06:53:21.437Z,15.20
2023-05-18T06:53:53.400Z,15.20
2023-05-18T06:54:24.093Z,15.30
2023-05-18T06:54:55.211Z,15.30
2023-05-18T06:55:26.324Z,15.30
2023-05-18T06:55:56.453Z,15.30
2023-05-18T06:56:27.840Z,15.30
2023-05-18T06:56:58.101Z,15.30
2023-05-18T06:57:29.520Z,15.30
2023-05-18T06:58:00.367Z,15.20
2023-05-18T06:58:31.868Z,15.10
2023-05-18T06:59:03.172Z,15.10
2023-05-18T06:59:34.950Z,15.10
2023-05-18T07:00:05.406Z,15.10
2023-05-18T07:00:36.961Z,15.10
2023-05-18T07:01:07.250Z,15.20
2023-05-18T07:01:37.424Z,15.30
2023-05-18T07:02:08.592Z,15.40
2023-05-18T07:02:39.693Z,15.50
2023-05-18T07:03:10.728Z,15.50
2023-05-18T07:03:41.582Z,15.70
2023-05-18T07:04:30.067Z,16.00
2023-05-18T07:04:44.519Z,16.00
2023-05-18T07:05:16.047Z,16.10
2023-05-18T07:05:46.180Z,16.10
2023-05-18T07:06:16.695Z,16.10
2023-05-18T07:06:47.435Z,16.20
2023-05-18T07:07:17.996Z,16.20
2023-05-18T07:07:48.994Z,16.20
2023-05-18T07:08:20.589Z,16.20
2023-05-18T07:08:51.264Z,16.20
2023-05-18T07:09:22.426Z,16.20
2023-05-18T07:10:25.429Z,16.20
2023-05-18T07:10:56.041Z,16.20
2023-05-18T07:11:29.480Z,16.10
2023-05-18T07:11:57.372Z,16.10
2023-05-18T07:12:28.136Z,16.10
2023-05-18T07:12:59.134Z,16.00
2023-05-18T07:13:30.077Z,15.80
2023-05-18T07:14:01.510Z,15.80
2023-05-18T07:14:32.430Z,15.70
2023-05-18T07:15:08.746Z,15.70
2023-05-18T07:15:35.312Z,15.60
2023-05-18T07:16:06.171Z,15.60
2023-05-18T07:16:36.896Z,15.60
2023-05-18T07:17:07.777Z,15.60
2023-05-18T07:17:38.339Z,15.60
2023-05-18T07:18:09.376Z,15.60
2023-05-18T07:18:40.001Z,15.50
2023-05-18T07:19:11.602Z,15.50
2023-05-18T07:19:42.462Z,15.40
2023-05-18T07:20:14.794Z,15.30
2023-05-18T07:20:45.431Z,15.30
2023-05-18T07:21:15.880Z,15.30
2023-05-18T07:22:17.581Z,15.30
2023-05-18T07:22:48.383Z,15.30